Latest Coastal Weather Observations for Hervey Bay

IDQ60701

Issued at 1:52 am EST Saturday 30 July 2016 (issued every 10 minutes, with the page automatically refreshed every 10 minutes)

About coastal observations | Map of coastal stations | Coastal observations for QLD | Marine services | Other Formats
Station Details ID: 040405 Name: HERVEY BAY AIRPORT Lat: -25.32 Lon: 152.88 Height: 12.98 m
Data from the previous 72 hours. | See also: Recent months at Hervey Bay
Date/Time
EST
Temp
°C
Wind Pressure Rain since
9am
mm
Weather Cloud Vis
km
Sea
Height
m
Swell
Dir  Spd
kts
Gust
kts
hPa Trend Height
m
Period
s
Dir
30/01:30am 9.4 SSW 4 4 1020.1 - 0.0 - - 10 - - - -
30/01:00am 9.2 SSW 3 4 1020.4 - 0.0 - - 10 - - - -
30/12:30am 9.2 SSW 3 4 1020.7 - 0.0 - - 10 - - - -
30/12:00am 9.3 SSW 4 4 1020.9 - 0.0 - - 10 - - - -
 
Date/Time
EST
Temp
°C
Wind Pressure Rain since
9am
mm
Weather Cloud Vis
km
Sea
Height
m
Swell
Dir  Spd
kts
Gust
kts
hPa Trend Height
m
Period
s
Dir
29/11:30pm 9.5 CALM 0 0 1020.9 - 0.0 - - 10 - - - -
29/11:00pm 9.8 CALM 0 0 1020.8 - 0.0 - - 10 - - - -
29/10:30pm 10.1 CALM 0 0 1020.9 - 0.0 - - 10 - - - -
29/10:00pm 10.4 CALM 0 0 1021.0 - 0.0 - - 10 - - - -
29/09:30pm 10.7 CALM 0 0 1021.0 - 0.0 - - 10 - - - -
29/09:00pm 11.2 CALM 0 0 1020.9 - 0.0 - - 10 - - - -
29/08:30pm 11.6 CALM 0 0 1020.9 - 0.0 - - 10 - - - -
29/08:00pm 12.4 CALM 0 0 1020.8 - 0.0 - - 10 - - - -
29/07:30pm 13.0 CALM 0 0 1020.7 - 0.0 - - 10 - - - -
29/07:00pm 13.9 ESE 3 4 1020.4 - 0.0 - - 10 - - - -
29/06:30pm 16.9 E 4 6 1020.2 - 0.0 - - 10 - - - -
29/06:00pm 17.3 E 6 7 1019.8 - 0.0 - - 10 - - - -
29/05:30pm 18.0 ESE 6 7 1019.5 - 0.0 - - 10 - - - -
29/05:00pm 19.9 ESE 7 9 1019.4 - 0.0 - - 10 - - - -
29/04:30pm 21.2 ESE 8 10 1019.4 - 0.0 - - 10 - - - -
29/04:00pm 21.6 ESE 8 11 1019.4 - 0.0 - - 10 - - - -
29/03:30pm 22.3 SE 6 9 1019.4 - 0.0 - - 10 - - - -
29/03:00pm 22.1 ESE 9 11 1019.3 - 0.0 - - 10 - - - -
29/02:30pm 22.7 ESE 7 11 1019.4 - 0.0 - - 10 - - - -
29/02:00pm 22.9 ESE 8 11 1019.6 - 0.0 - - 10 - - - -
29/01:30pm 22.6 SE 8 14 1019.8 - 0.0 - - 10 - - - -
29/01:00pm 22.8 ESE 7 11 1020.3 - 0.0 - - 10 - - - -
29/12:30pm 22.8 E 6 11 1020.8 - 0.0 - - 10 - - - -
29/12:00pm 22.6 ESE 6 10 1021.3 - 0.0 - - 10 - - - -
29/11:30am 21.9 S 6 9 1021.8 - 0.0 - - 10 - - - -
29/11:00am 21.6 SSW 7 9 1022.4 - 0.0 - - 10 - - - -
29/10:30am 20.3 SSW 8 10 1022.7 - 0.0 - - 10 - - - -
29/10:00am 19.3 SSW 8 10 1023.0 - 0.0 - - 10 - - - -
29/09:30am 16.6 SW 6 8 1023.2 - 0.0 - - 10 - - - -
29/09:00am 15.6 SW 7 9 1023.2 - 0.0 - - 10 - - - -
29/08:30am 15.0 SW 6 8 1023.1 - 0.0 - - 10 - - - -
29/08:00am 14.4 SW 7 9 1022.9 - 0.0 - - 10 - - - -
29/07:30am 13.5 SW 6 8 1022.7 - 0.0 - - 10 - - - -
29/07:00am 12.3 SSW 5 6 1022.4 - 0.0 - - 10 - - - -
29/06:30am 12.2 SW 4 5 1022.3 - 0.0 - - 10 - - - -
29/06:00am 12.5 SW 4 6 1022.0 - 0.0 - - 10 - - - -
29/05:30am 12.8 SW 7 9 1021.6 - 0.0 - - 10 - - - -
29/05:00am 13.0 SSW 7 11 1021.5 - 0.0 - - 10 - - - -
29/04:30am 12.6 SSW 8 11 1021.2 - 0.0 - - 10 - - - -
29/04:00am 12.1 SSW 7 9 1021.1 - 0.0 - - 10 - - - -
29/03:30am 12.2 SW 5 7 1021.0 - 0.0 - - 10 - - - -
29/03:00am 12.4 SW 5 8 1020.9 - 0.0 - - 10 - - - -
29/02:30am 12.5 SW 6 7 1021.2 - 0.0 - - 10 - - - -
29/02:00am 12.8 SW 6 8 1021.4 - 0.0 - - 10 - - - -
29/01:30am 12.7 SW 6 8 1021.5 - 0.0 - - 10 - - - -
29/01:00am 11.5 SW 4 5 1021.8 - 0.0 - - 10 - - - -
29/12:30am 12.0 SW 4 5 1021.8 - 0.0 - - 10 - - - -
29/12:00am 12.5 SW 4 6 1022.0 - 0.0 - - 10 - - - -
 
Date/Time
EST
Temp
°C
Wind Pressure Rain since
9am
mm
Weather Cloud Vis
km
Sea
Height
m
Swell
Dir  Spd
kts
Gust
kts
hPa Trend Height
m
Period
s
Dir
28/11:30pm 12.3 SSW 4 6 1022.3 - 0.0 - - 10 - - - -
28/11:00pm 12.0 SW 4 6 1022.4 - 0.0 - - 10 - - - -
28/10:30pm 11.9 SW 4 5 1022.6 - 0.0 - - 10 - - - -
28/10:00pm 11.2 SSW 4 5 1022.6 - 0.0 - - 10 - - - -
28/09:30pm 11.5 SSW 4 5 1022.7 - 0.0 - - 10 - - - -
28/09:00pm 11.8 SW 3 5 1023.0 - 0.0 - - 10 - - - -
28/08:30pm 12.6 SSW 4 5 1022.9 - 0.0 - - 10 - - - -
28/08:00pm 12.8 S 5 7 1022.8 - 0.0 - - 10 - - - -
28/07:30pm 13.0 S 3 5 1022.8 - 0.0 - - 10 - - - -
28/07:00pm 14.4 SSE 4 6 1022.5 - 0.0 - - 10 - - - -
28/06:30pm 16.7 SSE 4 6 1022.3 - 0.0 - - 10 - - - -
28/06:00pm 17.3 SE 5 7 1022.0 - 0.0 - - 10 - - - -
28/05:30pm 17.7 SE 5 6 1021.8 - 0.0 - - 10 - - - -
28/05:00pm 18.7 SE 5 10 1021.5 - 0.0 - - 10 - - - -
28/04:30pm 20.1 SE 5 8 1021.2 - 0.0 - - 10 - - - -
28/04:00pm 20.5 SE 8 12 1021.0 - 0.0 - - 10 - - - -
28/03:30pm 20.9 SE 9 13 1020.9 - 0.0 - - 10 - - - -
28/03:00pm 21.4 SSE 7 10 1020.8 - 0.0 - - 10 - - - -
28/02:30pm 21.3 SSE 9 13 1020.8 - 0.0 - - 10 - - - -
28/02:00pm 21.6 SE 7 11 1021.0 - 0.0 - - 10 - - - -
28/01:30pm 21.1 S 7 11 1021.1 - 0.0 - - 10 - - - -
28/01:00pm 21.1 SSW 7 12 1021.5 - 0.0 - - 10 - - - -
28/12:30pm 20.3 S 9 17 1022.0 - 0.0 - - 10 - - - -
28/12:00pm 19.9 S 9 14 1022.4 - 0.0 - - 10 - - - -
28/11:30am 19.4 S 10 15 1022.8 - 0.0 - - 10 - - - -
28/11:00am 19.1 SSW 10 16 1023.1 - 0.0 - - 10 - - - -
28/10:30am 18.2 S 11 16 1023.3 - 0.0 - - 10 - - - -
28/10:00am 17.5 SSW 11 15 1023.6 - 0.0 - - 10 - - - -
28/09:30am 16.4 SSW 11 15 1023.7 - 0.0 - - 10 - - - -
28/09:00am 15.0 SW 8 12 1023.5 - 0.0 - - 10 - - - -
28/08:30am 13.2 SW 7 11 1023.2 - 0.0 - - 10 - - - -
28/08:00am 11.3 SW 5 8 1023.2 - 0.0 - - 10 - - - -
28/07:30am 8.8 SW 4 6 1022.9 - 0.0 - - 10 - - - -
28/07:00am 6.5 SSW 4 4 1022.7 - 0.0 - - 10 - - - -
28/06:30am 4.5 SW 4 4 1022.4 - 0.0 - - 10 - - - -
28/06:00am 4.8 SW 4 5 1021.9 - 0.0 - - 10 - - - -
28/05:30am 5.2 SSE 4 5 1021.5 - 0.0 - - 10 - - - -
28/05:00am 5.7 SW 5 7 1021.3 - 0.0 - - 10 - - - -
28/04:30am 4.9 SW 5 6 1021.4 - 0.0 - - 10 - - - -
28/04:00am 4.9 WSW 3 3 1021.4 - 0.0 - - 10 - - - -
28/03:30am 5.0 CALM 0 0 1021.6 - 0.0 - - 10 - - - -
28/03:00am 5.4 SW 1 3 1021.7 - 0.0 - - 10 - - - -
28/02:30am 5.5 CALM 0 3 1021.6 - 0.0 - - 10 - - - -
28/02:00am 5.9 SSW 2 3 1021.7 - 0.0 - - 10 - - - -
28/01:30am 6.1 WSW 3 4 1021.7 - 0.0 - - 10 - - - -
28/01:00am 6.5 SW 2 4 1022.1 - 0.0 - - 10 - - - -
28/12:30am 7.0 SSW 3 4 1022.0 - 0.0 - - 10 - - - -
28/12:00am 7.3 CALM 0 0 1021.9 - 0.0 - - 10 - - - -
 
Date/Time
EST
Temp
°C
Wind Pressure Rain since
9am
mm
Weather Cloud Vis
km
Sea
Height
m
Swell
Dir  Spd
kts
Gust
kts
hPa Trend Height
m
Period
s
Dir
27/11:30pm 7.5 SW 5 5 1021.8 - 0.0 - - 10 - - - -
27/11:00pm 8.0 CALM 0 0 1021.6 - 0.0 - - 10 - - - -
27/10:30pm 8.9 CALM 0 0 1021.3 - 0.0 - - 10 - - - -
27/10:00pm 9.7 CALM 0 0 1021.4 - 0.0 - - 10 - - - -
27/09:30pm 10.5 CALM 0 0 1021.1 - 0.0 - - 10 - - - -
27/09:00pm 10.8 CALM 0 0 1020.9 - 0.0 - - 10 - - - -
27/08:30pm 10.8 WSW 3 4 1020.4 - 0.0 - - 10 - - - -
27/08:00pm 10.8 W 4 5 1020.2 - 0.0 - - 10 - - - -
27/07:30pm 12.0 CALM 0 0 1019.7 - 0.0 - - 10 - - - -
27/07:00pm 13.0 CALM 0 0 1019.3 - 0.0 - - 10 - - - -
27/06:30pm 14.2 W 3 5 1018.9 - 0.0 - - 10 - - - -
27/06:00pm 15.6 W 2 3 1018.6 - 0.0 - - 10 - - - -
27/05:30pm 16.3 WSW 5 6 1018.3 - 0.0 - - 10 - - - -
27/05:00pm 18.3 W 5 7 1018.1 - 0.0 - - 10 - - - -
27/04:30pm 19.5 WSW 5 8 1017.5 - 0.0 - - 10 - - - -
27/04:00pm 20.4 WSW 6 8 1017.2 - 0.0 - - 10 - - - -
27/03:30pm 21.0 SW 8 12 1017.1 - 0.0 - - 10 - - - -
27/03:00pm 22.1 SW 8 14 1016.7 - 0.0 - - 10 - - - -
27/02:30pm 22.7 SW 10 16 1016.8 - 0.0 - - 10 - - - -
27/02:00pm 23.0 SW 12 18 1016.9 - 0.0 - - 10 - - - -
27/01:30pm 23.3 SW 8 12 1017.0 - 0.0 - - 10 - - - -
27/01:00pm 23.6 WSW 8 11 1017.0 - 0.0 - - 10 - - - -
27/12:30pm 22.8 SSW 10 14 1017.4 - 0.0 - - 10 - - - -
27/12:00pm 22.6 SW 9 13 1018.0 - 0.0 - - 10 - - - -
27/11:30am 22.4 SW 8 11 1018.4 - 0.0 - - 10 - - - -
27/11:00am 22.2 SW 7 10 1019.2 - 0.0 - - 10 - - - -
27/10:30am 21.7 WSW 7 12 1019.7 - 0.0 - - 10 - - - -
27/10:00am 20.8 SW 7 9 1019.6 - 0.0 - - 10 - - - -
27/09:30am 19.2 SW 6 8 1019.9 - 0.0 - - 10 - - - -
27/09:00am 16.6 SW 5 6 1020.1 - 0.0 - - 10 - - - -
27/08:30am 15.2 SW 6 9 1020.0 - 0.0 - - 10 - - - -
27/08:00am 14.7 SW 6 7 1019.8 - 0.0 - - 10 - - - -
27/07:30am 14.0 SW 5 7 1019.5 - 0.0 - - 10 - - - -
27/07:00am 13.4 SW 5 8 1019.3 - 0.0 - - 10 - - - -
27/06:30am 11.4 SW 4 6 1019.3 - 0.0 - - 10 - - - -
27/06:00am 11.4 SW 1 4 1018.7 - 0.0 - - 10 - - - -
27/05:30am 10.8 SW 1 4 1018.6 - 0.0 - - 10 - - - -
27/05:00am 11.4 CALM 0 0 1018.5 - 0.0 - - 10 - - - -
27/04:30am 11.6 SW 4 5 1018.6 - 0.0 - - 10 - - - -
27/04:00am 11.2 CALM 0 2 1018.4 - 0.0 - - 10 - - - -
27/03:30am 11.1 SSW 4 5 1018.6 - 0.0 - - 10 - - - -
27/03:00am 10.9 WSW 5 7 1018.3 - 0.0 - - 10 - - - -
27/02:30am 10.7 SW 3 4 1018.2 - 0.0 - - 10 - - - -
27/02:00am 10.7 SW 5 5 1018.1 - 0.0 - - 10 - - - -

Other Formats:

Comma delimited format used in spreadsheet applications
http://www.bom.gov.au/fwo/IDQ60701/IDQ60701.95565.axf

JavaScript Object Notation format (JSON) in row-major order
http://www.bom.gov.au/fwo/IDQ60701/IDQ60701.95565.json